Time;durP1;ratioP1;P1;durP2;ratioP2;P2;SDS_P1;SDS_P2;PMS_P1;PMS_P2;Temp;Humidity;BMP_temperature;BMP_pressure;BME280_temperature;BME280_humidity;BME280_pressure;Samples;Min_cycle;Max_cycle;Signal;HPM_P1;HPM_P2
2023/02/21 02:14:36;;;;;;;;;;;9.40;99.90;;;;;;5022261;28;20425;-76
2023/02/21 02:17:14;;;;;;;40.88;17.67;;;9.30;99.90;;;;;;5041663;28;19917;-75
2023/02/21 02:20:18;;;;;;;39.70;19.73;;;9.40;99.90;;;;;;5021310;28;20927;-75
2023/02/21 02:23:03;;;;;;;36.03;17.90;;;9.40;99.90;;;;;;5038984;28;20045;-74
2023/02/21 02:25:59;;;;;;;40.80;18.65;;;9.30;99.90;;;;;;5022690;28;20344;-75
2023/02/21 02:28:54;;;;;;;38.45;18.27;;;9.40;99.90;;;;;;5037582;28;20041;-76
2023/02/21 02:31:44;;;;;;;39.47;18.95;;;9.40;99.90;;;;;;4994989;28;20409;-75
2023/02/21 02:34:46;;;;;;;44.67;19.45;;;9.40;99.90;;;;;;5029379;28;20041;-76
2023/02/21 02:37:41;;;;;;;35.20;18.48;;;9.40;99.90;;;;;;5030547;28;20041;-75
2023/02/21 02:40:39;;;;;;;36.80;19.23;;;9.40;99.90;;;;;;5013978;28;20065;-75
2023/02/21 02:43:18;;;;;;;39.70;19.23;;;9.40;99.90;;;;;;5021828;28;20171;-76
2023/02/21 02:45:52;;;;;;;36.28;20.77;;;9.40;99.90;;;;;;5020204;28;20045;-76
2023/02/21 02:48:25;;;;;;;36.95;18.60;;;9.40;99.90;;;;;;5029462;28;20041;-75
2023/02/21 02:50:52;;;;;;;35.90;18.85;;;9.40;99.90;;;;;;5023831;28;20086;-76
2023/02/21 02:53:26;;;;;;;36.50;18.90;;;9.40;99.90;;;;;;5026119;28;20437;-75
2023/02/21 02:56:03;;;;;;;34.60;18.60;;;9.40;99.90;;;;;;5040422;28;20425;-75
2023/02/21 02:58:52;;;;;;;39.85;18.38;;;9.40;99.90;;;;;;5018079;28;20401;-76
2023/02/21 03:01:35;;;;;;;40.13;19.17;;;9.40;99.90;;;;;;5042182;28;20390;-75
2023/02/21 03:04:29;;;;;;;36.33;18.70;;;9.40;99.90;;;;;;5028289;28;20044;-76
2023/02/21 03:07:06;;;;;;;38.33;18.17;;;9.40;99.90;;;;;;5031520;28;20041;-75
2023/02/21 03:10:10;;;;;;;35.65;19.15;;;9.40;99.90;;;;;;5016459;28;20088;-75
2023/02/21 03:12:58;;;;;;;38.05;19.25;;;9.40;99.90;;;;;;5025798;28;20037;-75
2023/02/21 03:15:33;;;;;;;36.90;19.10;;;9.40;99.90;;;;;;5045669;28;20048;-76
2023/02/21 03:18:04;;;;;;;34.95;18.13;;;9.40;99.90;;;;;;5019845;28;20037;-75
2023/02/21 03:20:32;;;;;;;40.22;19.67;;;9.40;99.90;;;;;;5036738;28;20037;-74
2023/02/21 03:23:01;;;;;;;35.22;18.23;;;9.40;99.90;;;;;;5023680;28;20378;-76
2023/02/21 03:25:30;;;;;;;39.40;18.92;;;9.30;99.90;;;;;;5031663;28;20124;-76
2023/02/21 03:27:56;;;;;;;38.72;19.50;;;9.40;99.90;;;;;;5025812;28;20148;-76
2023/02/21 03:30:22;;;;;;;38.38;18.95;;;9.30;99.90;;;;;;5035039;28;20128;-75
2023/02/21 03:32:52;;;;;;;40.58;19.85;;;9.30;99.90;;;;;;5032900;28;21569;-75
2023/02/21 03:35:19;;;;;;;39.15;19.27;;;9.30;99.90;;;;;;5021057;28;20045;-75
2023/02/21 03:37:53;;;;;;;42.00;20.67;;;9.30;99.90;;;;;;5021008;28;20057;-75
2023/02/21 03:40:27;;;;;;;36.05;19.13;;;9.30;99.90;;;;;;5031934;28;20041;-76
2023/02/21 03:42:57;;;;;;;40.00;20.05;;;9.30;99.90;;;;;;5025314;28;20041;-76
2023/02/21 03:45:22;;;;;;;39.53;19.50;;;9.30;99.90;;;;;;5023343;28;20049;-75
2023/02/21 03:47:48;;;;;;;39.35;19.92;;;9.30;99.90;;;;;;5019794;28;20555;-75
2023/02/21 03:50:14;;;;;;;41.95;19.70;;;9.30;99.90;;;;;;5015401;28;20037;-75
2023/02/21 03:52:40;;;;;;;38.35;19.98;;;9.30;99.90;;;;;;5026009;28;20067;-75
2023/02/21 03:55:06;;;;;;;37.88;19.15;;;9.30;99.90;;;;;;5022082;28;20037;-75
2023/02/21 03:57:32;;;;;;;38.25;21.77;;;9.30;99.90;;;;;;5021538;28;20045;-75
2023/02/21 03:59:58;;;;;;;36.50;20.17;;;9.30;99.90;;;;;;5021328;28;20049;-75
2023/02/21 04:02:23;;;;;;;37.78;21.05;;;9.30;99.90;;;;;;5007476;28;20045;-75
2023/02/21 04:04:49;;;;;;;45.47;21.55;;;9.60;99.90;;;;;;5024442;28;20444;-75
2023/02/21 04:07:17;;;;;;;38.58;20.38;;;9.30;99.90;;;;;;5021752;28;20409;-75
2023/02/21 04:09:42;;;;;;;42.38;21.05;;;9.30;99.90;;;;;;5024651;28;20510;-75
2023/02/21 04:12:08;;;;;;;39.70;21.42;;;9.30;99.90;;;;;;5028123;28;20037;-75
2023/02/21 04:14:34;;;;;;;43.38;21.50;;;9.30;99.90;;;;;;5025038;28;20037;-75
2023/02/21 04:16:59;;;;;;;46.05;21.83;;;9.30;99.90;;;;;;5033351;28;20041;-75
2023/02/21 04:19:25;;;;;;;43.40;22.92;;;9.30;99.90;;;;;;5006386;28;20045;-75
2023/02/21 04:21:50;;;;;;;41.95;20.52;;;9.20;99.90;;;;;;5024109;28;20064;-75
2023/02/21 04:24:16;;;;;;;42.60;21.38;;;9.20;99.90;;;;;;5015896;28;20132;-75
2023/02/21 04:26:42;;;;;;;40.50;20.35;;;9.30;99.90;;;;;;5022542;28;20088;-75
2023/02/21 04:29:07;;;;;;;43.88;22.10;;;9.30;99.90;;;;;;5031088;28;20041;-74
2023/02/21 04:31:34;;;;;;;43.53;21.80;;;9.20;99.90;;;;;;5022903;28;20043;-75
2023/02/21 04:33:59;;;;;;;43.13;22.15;;;9.40;99.90;;;;;;5017751;28;20049;-75
2023/02/21 04:36:25;;;;;;;46.13;21.45;;;9.20;99.90;;;;;;5048177;28;20495;-75
2023/02/21 04:38:51;;;;;;;40.42;22.25;;;9.20;99.90;;;;;;5002659;28;20091;-75
2023/02/21 04:41:17;;;;;;;41.47;22.35;;;9.20;99.90;;;;;;5023827;28;20076;-75
2023/02/21 04:43:43;;;;;;;42.40;21.33;;;9.20;99.90;;;;;;5025533;28;20124;-74
2023/02/21 04:46:14;;;;;;;45.40;22.42;;;9.20;99.90;;;;;;5039565;28;20041;-74
2023/02/21 04:48:41;;;;;;;41.65;23.00;;;9.20;99.90;;;;;;5028243;28;20090;-74
2023/02/21 04:51:07;;;;;;;47.53;23.67;;;9.20;99.90;;;;;;5013862;28;20056;-74
2023/02/21 04:53:32;;;;;;;44.85;23.00;;;9.20;99.90;;;;;;5047665;28;20046;-75
2023/02/21 04:55:58;;;;;;;48.40;24.08;;;9.20;99.90;;;;;;5028384;28;20032;-75
2023/02/21 04:58:23;;;;;;;42.33;23.08;;;9.20;99.90;;;;;;5024198;28;20486;-75
2023/02/21 05:00:49;;;;;;;46.22;24.25;;;9.60;99.90;;;;;;5031070;28;20036;-76
2023/02/21 05:03:15;;;;;;;45.22;22.92;;;9.20;99.90;;;;;;5027282;28;20057;-76
2023/02/21 05:05:40;;;;;;;48.65;23.63;;;9.20;99.90;;;;;;5052500;28;20549;-76
2023/02/21 05:08:06;;;;;;;49.33;25.17;;;9.20;99.90;;;;;;5032847;28;20041;-76
2023/02/21 05:10:31;;;;;;;43.97;23.15;;;9.20;99.90;;;;;;5024660;28;20143;-76
2023/02/21 05:12:57;;;;;;;45.95;23.85;;;9.20;99.90;;;;;;5031583;28;20187;-76
2023/02/21 05:15:23;;;;;;;46.15;23.38;;;9.20;99.90;;;;;;5017072;28;20040;-76
2023/02/21 05:17:48;;;;;;;44.38;24.38;;;9.20;99.90;;;;;;5022030;28;20040;-78
2023/02/21 05:20:14;;;;;;;48.65;25.10;;;9.20;99.90;;;;;;5029631;28;20069;-79
2023/02/21 05:22:40;;;;;;;51.60;23.20;;;9.20;99.90;;;;;;5012120;28;20043;-81
2023/02/21 05:25:15;;;;;;;48.15;25.00;;;9.10;99.90;;;;;;5027786;28;20111;-78
2023/02/21 05:27:40;;;;;;;47.90;23.92;;;9.10;99.90;;;;;;5031325;28;20033;-79
2023/02/21 05:30:07;;;;;;;42.45;23.58;;;9.20;99.90;;;;;;5026169;28;20037;-79
2023/02/21 05:32:36;;;;;;;46.30;24.08;;;9.10;99.90;;;;;;5025450;28;20128;-79
2023/02/21 05:35:02;;;;;;;48.38;24.30;;;9.10;99.90;;;;;;5030890;28;20454;-78
2023/02/21 05:37:27;;;;;;;49.45;24.65;;;9.20;99.90;;;;;;5023026;28;20041;-79
2023/02/21 05:39:53;;;;;;;51.00;24.90;;;9.10;99.90;;;;;;5033205;28;20037;-79
2023/02/21 05:42:18;;;;;;;45.17;23.75;;;9.10;99.90;;;;;;5023841;28;20485;-77
2023/02/21 05:44:45;;;;;;;46.53;24.05;;;9.20;99.90;;;;;;5020052;28;20037;-80
2023/02/21 05:47:12;;;;;;;50.67;25.10;;;9.30;99.90;;;;;;5003634;28;20521;-78
2023/02/21 05:49:38;;;;;;;47.72;23.92;;;9.20;99.90;;;;;;5025237;28;20033;-78
2023/02/21 05:52:04;;;;;;;47.28;24.05;;;9.10;99.90;;;;;;5023323;28;20086;-79
2023/02/21 05:54:30;;;;;;;43.15;23.33;;;9.10;99.90;;;;;;5011736;28;20038;-79
2023/02/21 05:56:56;;;;;;;41.97;24.15;;;9.10;99.90;;;;;;5022533;28;20038;-80
2023/02/21 05:59:22;;;;;;;54.15;24.98;;;9.10;99.90;;;;;;5018090;28;20428;-79
2023/02/21 06:01:48;;;;;;;48.67;24.33;;;9.10;99.90;;;;;;5030131;28;20036;-77
2023/02/21 06:04:14;;;;;;;48.35;24.92;;;9.10;99.90;;;;;;5015902;28;20075;-77
2023/02/21 06:06:40;;;;;;;51.05;25.65;;;9.10;99.90;;;;;;5049810;28;20025;-77
2023/02/21 06:09:06;;;;;;;46.75;25.42;;;9.10;99.90;;;;;;5026602;28;20099;-77
2023/02/21 06:11:36;;;;;;;53.70;25.73;;;9.10;99.90;;;;;;5022588;28;20489;-78
2023/02/21 06:14:05;;;;;;;51.42;26.00;;;9.40;99.90;;;;;;5023805;28;20099;-78
2023/02/21 06:16:36;;;;;;;46.65;24.55;;;9.10;99.90;;;;;;5026942;28;20343;-79
2023/02/21 06:19:04;;;;;;;45.33;25.30;;;9.10;99.90;;;;;;5022120;28;20045;-80
2023/02/21 06:21:29;;;;;;;44.08;24.55;;;9.00;99.90;;;;;;5032592;28;20041;-80
2023/02/21 06:23:55;;;;;;;47.65;24.95;;;9.00;99.90;;;;;;5026775;28;20543;-78
2023/02/21 06:26:22;;;;;;;52.03;25.42;;;9.10;99.90;;;;;;5023002;28;20045;-78
2023/02/21 06:28:48;;;;;;;54.55;26.77;;;9.30;99.90;;;;;;5022663;28;20041;-77
2023/02/21 06:31:15;;;;;;;48.40;25.25;;;9.10;99.90;;;;;;5022727;28;20072;-78
2023/02/21 06:33:40;;;;;;;52.00;26.55;;;9.10;99.90;;;;;;5017629;28;20072;-77
2023/02/21 06:36:10;;;;;;;48.70;26.30;;;9.10;99.90;;;;;;5039088;28;20742;-77
2023/02/21 06:38:38;;;;;;;56.30;26.63;;;9.10;99.90;;;;;;5032798;28;20029;-77
2023/02/21 06:41:07;;;;;;;54.83;26.95;;;9.10;99.90;;;;;;5026616;28;20100;-77
2023/02/21 06:43:35;;;;;;;50.58;26.63;;;9.20;99.90;;;;;;5027184;28;20077;-77
2023/02/21 06:46:07;;;;;;;55.90;27.40;;;9.10;99.90;;;;;;5026447;28;20048;-77
2023/02/21 06:48:32;;;;;;;51.70;26.03;;;9.10;99.90;;;;;;5027102;28;20048;-77
2023/02/21 06:50:58;;;;;;;50.85;27.88;;;9.10;99.90;;;;;;5036643;28;20040;-77
2023/02/21 06:53:24;;;;;;;57.80;27.50;;;9.50;99.90;;;;;;5014991;28;20475;-77
2023/02/21 06:55:53;;;;;;;49.63;26.42;;;9.10;99.90;;;;;;5040261;28;20106;-77
2023/02/21 06:58:18;;;;;;;53.00;27.77;;;9.00;99.90;;;;;;5028963;28;20041;-77
2023/02/21 07:00:44;;;;;;;60.00;27.73;;;9.10;99.90;;;;;;5011394;28;20036;-77
2023/02/21 07:03:10;;;;;;;53.75;26.55;;;9.00;99.90;;;;;;5046516;28;20041;-77
2023/02/21 07:05:37;;;;;;;53.28;26.73;;;9.10;99.90;;;;;;5031252;28;20485;-77
2023/02/21 07:08:06;;;;;;;55.22;25.77;;;9.10;99.90;;;;;;5035418;28;20488;-77
2023/02/21 07:10:31;;;;;;;54.00;27.55;;;9.20;99.90;;;;;;5032544;28;20040;-75
2023/02/21 07:12:57;;;;;;;51.10;27.50;;;9.10;99.90;;;;;;5030358;28;20037;-75
2023/02/21 07:15:22;;;;;;;58.08;28.20;;;9.10;99.90;;;;;;5029243;28;20040;-77
2023/02/21 07:17:48;;;;;;;53.45;28.02;;;9.10;99.90;;;;;;5034122;28;20123;-77
2023/02/21 07:20:14;;;;;;;51.20;27.30;;;9.10;99.90;;;;;;5033382;28;20493;-76
2023/02/21 07:22:41;;;;;;;54.25;27.33;;;9.10;99.90;;;;;;5034356;28;20405;-77
2023/02/21 07:25:07;;;;;;;48.55;25.55;;;9.10;99.90;;;;;;5037524;28;20044;-77
2023/02/21 07:27:33;;;;;;;56.22;28.63;;;9.10;99.90;;;;;;5029847;28;20063;-74
2023/02/21 07:29:58;;;;;;;56.22;28.02;;;9.10;99.90;;;;;;5029781;28;20038;-75
2023/02/21 07:32:24;;;;;;;56.40;27.55;;;9.10;99.90;;;;;;5027269;28;20099;-75
2023/02/21 07:34:49;;;;;;;51.10;27.30;;;9.10;99.90;;;;;;5034787;28;20041;-75
2023/02/21 07:37:15;;;;;;;54.95;27.70;;;9.10;99.90;;;;;;5034169;28;20120;-75
2023/02/21 07:39:41;;;;;;;58.38;29.02;;;9.10;99.90;;;;;;5036371;28;20033;-74
2023/02/21 07:42:09;;;;;;;54.60;28.73;;;9.10;99.90;;;;;;5019830;28;20037;-74
2023/02/21 07:44:35;;;;;;;60.78;29.33;;;9.10;99.90;;;;;;5032352;28;20037;-75
2023/02/21 07:47:01;;;;;;;54.72;27.23;;;9.10;99.90;;;;;;5031845;28;20079;-79
2023/02/21 07:49:26;;;;;;;57.60;28.30;;;9.10;99.90;;;;;;5031476;28;20045;-76
2023/02/21 07:51:52;;;;;;;54.42;27.50;;;9.10;99.90;;;;;;5034555;28;20481;-75
2023/02/21 07:54:18;;;;;;;53.55;27.35;;;9.10;99.90;;;;;;5031600;28;20493;-78
2023/02/21 07:56:48;;;;;;;56.35;28.35;;;9.10;99.90;;;;;;5033125;28;20037;-75
2023/02/21 07:59:14;;;;;;;59.30;29.33;;;9.10;99.90;;;;;;5035012;28;20394;-75
2023/02/21 08:01:41;;;;;;;57.80;28.75;;;9.20;99.90;;;;;;5029796;28;20041;-76
2023/02/21 08:04:07;;;;;;;55.88;28.98;;;9.10;99.90;;;;;;5032822;28;20175;-75
2023/02/21 08:06:34;;;;;;;53.08;28.50;;;9.10;99.90;;;;;;5032172;28;20425;-76
2023/02/21 08:08:59;;;;;;;59.80;28.88;;;9.20;99.90;;;;;;5021719;28;20440;-76
2023/02/21 08:11:25;;;;;;;61.03;29.60;;;9.20;99.90;;;;;;5035837;28;20131;-76
2023/02/21 08:13:51;;;;;;;51.25;29.05;;;9.20;99.90;;;;;;5023908;28;20497;-75
2023/02/21 08:16:16;;;;;;;58.72;30.00;;;9.20;99.90;;;;;;5026316;28;20078;-76
2023/02/21 08:18:42;;;;;;;55.08;28.15;;;9.20;99.90;;;;;;5010924;28;20068;-75
2023/02/21 08:21:10;;;;;;;58.63;29.52;;;9.30;99.90;;;;;;5027059;28;20036;-75
2023/02/21 08:23:36;;;;;;;58.40;30.52;;;9.20;99.90;;;;;;5029145;28;20037;-75
2023/02/21 08:26:03;;;;;;;60.70;30.52;;;9.20;99.90;;;;;;5026507;28;20374;-75
2023/02/21 08:28:29;;;;;;;54.35;29.38;;;9.20;99.90;;;;;;5028508;28;20044;-75
2023/02/21 08:30:55;;;;;;;59.78;30.17;;;9.20;99.90;;;;;;5030827;28;20071;-75
2023/02/21 08:33:21;;;;;;;58.00;29.85;;;9.20;99.90;;;;;;5015146;28;20068;-75
2023/02/21 08:35:46;;;;;;;56.72;29.95;;;9.20;99.90;;;;;;5022988;28;20053;-75
2023/02/21 08:38:12;;;;;;;58.85;30.42;;;9.30;99.90;;;;;;5024041;28;20084;-75
2023/02/21 08:40:38;;;;;;;58.10;29.92;;;9.30;99.90;;;;;;5028341;28;20570;-75
2023/02/21 08:43:04;;;;;;;57.33;29.85;;;9.40;99.90;;;;;;5025506;28;20131;-75
2023/02/21 08:45:30;;;;;;;62.75;30.95;;;9.50;99.90;;;;;;5024507;28;20045;-75
2023/02/21 08:47:57;;;;;;;57.15;29.52;;;9.30;99.90;;;;;;5022682;28;20041;-76
2023/02/21 08:50:25;;;;;;;62.03;30.95;;;9.30;99.90;;;;;;5028608;28;20041;-76
2023/02/21 08:52:51;;;;;;;56.13;29.30;;;9.30;99.90;;;;;;5023115;28;20473;-76
2023/02/21 08:55:18;;;;;;;60.67;30.95;;;9.30;99.90;;;;;;5024330;28;20041;-76
2023/02/21 08:57:47;;;;;;;61.88;31.67;;;9.30;99.90;;;;;;5026645;28;20538;-75
2023/02/21 09:00:14;;;;;;;58.05;29.50;;;9.30;99.90;;;;;;5032302;28;20075;-74
2023/02/21 09:02:40;;;;;;;61.13;30.73;;;9.30;99.90;;;;;;5030905;28;20117;-75
2023/02/21 09:05:15;;;;;;;63.33;30.48;;;9.30;99.90;;;;;;5023627;28;20053;-75
2023/02/21 09:07:41;;;;;;;62.03;31.67;;;9.30;99.90;;;;;;5023616;28;20462;-75
2023/02/21 09:10:09;;;;;;;62.08;30.90;;;9.40;99.90;;;;;;5005234;28;20093;-75
2023/02/21 09:12:35;;;;;;;66.85;31.08;;;9.40;99.90;;;;;;5010200;28;20044;-75
2023/02/21 09:15:00;;;;;;;71.60;32.08;;;9.40;99.90;;;;;;5016564;28;20038;-75
2023/02/21 09:17:26;;;;;;;65.22;31.70;;;9.40;99.90;;;;;;5019871;28;20056;-75
2023/02/21 09:19:52;;;;;;;57.70;30.23;;;9.40;99.90;;;;;;5022734;28;20037;-75
2023/02/21 09:22:18;;;;;;;61.08;30.65;;;9.40;99.90;;;;;;5019206;28;20534;-75
2023/02/21 09:24:44;;;;;;;62.65;30.88;;;9.50;99.90;;;;;;5010647;28;20128;-75
2023/02/21 09:27:09;;;;;;;64.38;30.08;;;9.50;99.90;;;;;;5029043;28;20080;-75
2023/02/21 09:29:35;;;;;;;59.03;30.40;;;9.50;99.90;;;;;;5014263;28;20098;-75
2023/02/21 09:32:02;;;;;;;62.67;31.33;;;9.50;99.90;;;;;;5022104;28;20056;-75
2023/02/21 09:34:28;;;;;;;61.35;30.45;;;9.50;99.90;;;;;;5024837;28;20041;-75
2023/02/21 09:36:54;;;;;;;66.63;30.60;;;9.60;99.90;;;;;;5025770;28;20083;-75
2023/02/21 09:39:21;;;;;;;60.20;29.75;;;9.60;99.90;;;;;;5013957;28;20037;-75
2023/02/21 09:41:48;;;;;;;58.10;29.88;;;9.70;99.90;;;;;;5019900;28;20045;-77
2023/02/21 09:44:17;;;;;;;56.22;30.05;;;9.70;99.90;;;;;;5023210;28;20037;-75
2023/02/21 09:46:59;;;;;;;57.72;29.48;;;9.70;99.90;;;;;;5018710;28;20049;-75
2023/02/21 09:49:30;;;;;;;58.63;30.80;;;9.70;99.90;;;;;;5010336;28;20045;-76
2023/02/21 09:51:56;;;;;;;56.45;29.30;;;9.70;99.90;;;;;;5025905;28;20037;-76
2023/02/21 09:54:32;;;;;;;56.50;29.80;;;9.70;99.90;;;;;;5027977;28;20041;-76
2023/02/21 09:57:01;;;;;;;54.50;29.20;;;9.70;99.90;;;;;;5015059;28;20045;-76
2023/02/21 09:59:27;;;;;;;56.67;29.95;;;9.70;99.90;;;;;;5014967;28;20532;-75
2023/02/21 10:02:08;;;;;;;58.65;29.80;;;9.70;99.90;;;;;;5022002;28;20064;-76
2023/02/21 10:05:08;;;;;;;54.25;28.98;;;9.70;99.90;;;;;;5010888;28;20072;-76
2023/02/21 10:07:53;;;;;;;52.00;29.52;;;9.80;99.90;;;;;;5023982;28;20179;-75
2023/02/21 10:10:36;;;;;;;57.55;30.05;;;9.70;99.90;;;;;;5018981;28;20180;-75
2023/02/21 10:13:38;;;;;;;58.92;30.55;;;9.80;99.90;;;;;;5033073;28;20045;-76
2023/02/21 10:16:32;;;;;;;55.95;30.15;;;9.80;99.90;;;;;;4942311;28;20436;-75
2023/02/21 10:19:25;;;;;;;56.63;30.45;;;9.80;99.90;;;;;;5038202;28;20088;-74
2023/02/21 10:21:53;;;;;;;57.92;30.17;;;9.80;99.90;;;;;;5022771;28;20060;-76
2023/02/21 10:24:22;;;;;;;61.40;30.50;;;9.70;99.90;;;;;;5023817;28;20131;-76
2023/02/21 10:27:05;;;;;;;57.33;30.98;;;9.70;99.90;;;;;;5043822;28;20040;-75
2023/02/21 10:30:00;;;;;;;55.35;30.73;;;9.80;99.90;;;;;;5021927;28;20077;-74
2023/02/21 10:32:27;;;;;;;61.58;30.05;;;9.70;99.90;;;;;;5017995;28;20471;-74
2023/02/21 10:34:53;;;;;;;57.15;31.33;;;9.70;99.90;;;;;;5024822;28;20084;-75
2023/02/21 10:37:25;;;;;;;58.92;31.38;;;9.80;99.90;;;;;;5032890;28;20045;-75
2023/02/21 10:40:01;;;;;;;57.00;31.55;;;9.80;99.90;;;;;;5028581;28;20471;-75
2023/02/21 10:42:41;;;;;;;61.88;32.20;;;9.80;99.90;;;;;;5007826;28;20048;-75
2023/02/21 10:45:10;;;;;;;60.40;31.73;;;9.80;99.90;;;;;;5027601;28;20128;-75
2023/02/21 10:48:00;;;;;;;58.05;32.28;;;9.80;99.90;;;;;;5014585;28;20049;-75
2023/02/21 10:50:42;;;;;;;62.13;30.63;;;9.80;99.90;;;;;;5015492;28;20069;-76
2023/02/21 10:53:09;;;;;;;;;;;9.80;99.90;;;;;;5024905;28;20084;-76
2023/02/21 10:55:34;;;;;;;61.40;31.23;;;9.80;99.90;;;;;;5031839;28;19917;-76
2023/02/21 10:58:10;;;;;;;55.63;31.98;;;9.80;99.90;;;;;;5014096;28;20038;-76
2023/02/21 11:00:40;;;;;;;55.10;30.23;;;9.80;99.90;;;;;;5029300;28;20044;-75
2023/02/21 11:03:29;;;;;;;60.13;31.33;;;9.80;99.90;;;;;;5024553;28;20037;-75
2023/02/21 11:05:56;;;;;;;55.53;30.65;;;9.90;99.90;;;;;;5026501;28;20115;-75
2023/02/21 11:08:40;;;;;;;55.28;30.42;;;9.80;99.90;;;;;;5032618;28;20128;-75
2023/02/21 11:11:06;;;;;;;54.85;30.95;;;9.90;99.90;;;;;;5021534;28;20051;-76
2023/02/21 11:13:34;;;;;;;56.70;31.50;;;9.90;99.90;;;;;;5013180;28;20045;-75
2023/02/21 11:16:20;;;;;;;55.10;30.35;;;9.90;99.90;;;;;;5007148;28;20112;-75
2023/02/21 11:19:02;;;;;;;56.92;30.33;;;9.90;99.90;;;;;;5022297;28;20520;-76
2023/02/21 11:21:28;;;;;;;57.17;30.90;;;9.90;99.90;;;;;;5022835;28;20076;-75
2023/02/21 11:24:01;;;;;;;57.28;31.38;;;9.80;99.90;;;;;;5025005;28;20645;-75
2023/02/21 11:26:29;;;;;;;54.47;30.92;;;9.90;99.90;;;;;;5033324;28;20547;-75
2023/02/21 11:29:09;;;;;;;58.33;30.05;;;9.90;99.90;;;;;;5020637;28;20049;-75
2023/02/21 11:31:34;;;;;;;56.20;30.30;;;9.90;99.90;;;;;;5047022;28;20048;-75
2023/02/21 11:34:04;;;;;;;56.58;30.92;;;9.90;99.90;;;;;;5035343;28;20045;-75
2023/02/21 11:36:34;;;;;;;54.08;31.25;;;9.80;99.90;;;;;;5036024;28;20033;-76
2023/02/21 11:39:18;;;;;;;56.60;32.25;;;9.90;99.90;;;;;;5027853;28;20030;-74
2023/02/21 11:41:49;;;;;;;59.92;32.20;;;9.90;99.90;;;;;;5031515;28;20076;-74
2023/02/21 11:44:21;;;;;;;54.58;30.75;;;9.90;99.90;;;;;;5030625;28;20410;-75
2023/02/21 11:46:49;;;;;;;57.22;30.55;;;9.90;99.90;;;;;;5028913;28;20508;-75
2023/02/21 11:49:33;;;;;;;55.88;31.45;;;9.80;99.90;;;;;;5016739;28;20060;-75
2023/02/21 11:52:10;;;;;;;61.75;31.48;;;9.90;99.90;;;;;;5026631;28;20076;-75
2023/02/21 11:54:38;;;;;;;60.35;32.08;;;9.90;99.90;;;;;;5008284;28;20073;-75
2023/02/21 11:57:24;;;;;;;56.65;30.95;;;9.90;99.90;;;;;;5031137;28;20512;-75
2023/02/21 12:00:24;;;;;;;62.15;30.75;;;9.80;99.90;;;;;;5035685;28;20580;-75
2023/02/21 12:03:01;;;;;;;55.08;29.50;;;9.90;99.90;;;;;;5025029;28;20083;-75
2023/02/21 12:05:37;;;;;;;57.53;31.40;;;9.80;99.90;;;;;;5023402;28;20528;-75
2023/02/21 12:08:24;;;;;;;58.83;30.23;;;9.80;99.90;;;;;;5029878;28;20079;-75
2023/02/21 12:10:59;;;;;;;55.83;30.85;;;9.80;99.90;;;;;;5028206;28;20053;-75
2023/02/21 12:13:34;;;;;;;60.92;31.98;;;9.80;99.90;;;;;;5025544;28;20040;-76
2023/02/21 12:16:33;;;;;;;56.30;30.50;;;9.80;99.90;;;;;;5030663;28;20543;-75
2023/02/21 12:19:22;;;;;;;57.08;30.70;;;9.80;99.90;;;;;;5029643;28;20041;-75
2023/02/21 12:21:59;;;;;;;56.90;30.67;;;9.90;99.90;;;;;;5018751;28;20117;-76
2023/02/21 12:24:47;;;;;;;59.65;31.27;;;9.80;99.90;;;;;;5029947;28;20051;-76
2023/02/21 12:27:32;;;;;;;55.83;31.73;;;9.70;99.90;;;;;;5028434;28;20111;-76
2023/02/21 12:30:36;;;;;;;58.28;32.58;;;9.90;99.90;;;;;;5026167;28;20041;-76
2023/02/21 12:33:26;;;;;;;57.25;31.50;;;9.70;99.90;;;;;;5022197;28;20041;-77
2023/02/21 12:36:14;;;;;;;59.78;31.75;;;9.80;99.90;;;;;;5025720;28;20405;-75
2023/02/21 12:38:53;;;;;;;60.72;31.38;;;9.80;99.90;;;;;;5027468;28;20489;-76
2023/02/21 12:41:43;;;;;;;62.03;32.22;;;9.80;99.90;;;;;;5030534;28;20069;-76
2023/02/21 12:44:17;;;;;;;55.03;31.58;;;9.80;99.90;;;;;;5023030;28;20073;-75
2023/02/21 12:47:03;;;;;;;64.05;32.08;;;9.80;99.90;;;;;;5021526;28;20527;-75
2023/02/21 12:49:32;;;;;;;69.93;33.72;;;9.70;99.90;;;;;;5030585;28;20053;-76
2023/02/21 12:52:27;;;;;;;69.65;33.75;;;9.80;99.90;;;;;;5022575;28;20116;-76
2023/02/21 12:55:15;;;;;;;63.53;33.65;;;9.80;99.90;;;;;;5014901;28;20052;-76
2023/02/21 12:57:50;;;;;;;72.43;34.92;;;9.80;99.90;;;;;;5047756;28;20066;-77
2023/02/21 13:00:48;;;;;;;69.88;35.88;;;9.70;99.90;;;;;;5020949;28;20683;-75
2023/02/21 13:03:33;;;;;;;69.18;34.22;;;9.80;99.90;;;;;;4995346;28;20057;-76
2023/02/21 13:06:25;;;;;;;68.50;35.05;;;9.80;99.90;;;;;;5032821;28;20040;-75
2023/02/21 13:09:03;;;;;;;74.60;36.22;;;9.80;99.90;;;;;;5025234;28;20047;-76
2023/02/21 13:11:41;;;;;;;70.00;35.75;;;9.80;99.90;;;;;;5002958;28;20077;-75
2023/02/21 13:14:16;;;;;;;74.32;36.63;;;9.80;99.90;;;;;;5017046;28;20375;-76
2023/02/21 13:16:41;;;;;;;76.05;37.35;;;9.80;99.90;;;;;;5021544;28;20041;-76
2023/02/21 13:19:10;;;;;;;67.88;35.33;;;9.80;99.90;;;;;;5006880;28;20500;-76
2023/02/21 13:21:51;;;;;;;71.75;36.13;;;9.70;99.90;;;;;;5024745;28;20037;-76
2023/02/21 13:24:25;;;;;;;73.05;36.72;;;9.80;99.90;;;;;;5022814;28;20134;-77
2023/02/21 13:27:25;;;;;;;69.32;35.42;;;9.80;99.90;;;;;;5021863;28;20041;-76
2023/02/21 13:29:58;;;;;;;74.32;34.47;;;9.80;99.90;;;;;;5032289;28;20532;-76
2023/02/21 13:32:24;;;;;;;73.53;34.50;;;9.70;99.90;;;;;;5044752;28;20055;-76
2023/02/21 13:34:59;;;;;;;65.05;34.95;;;9.90;99.90;;;;;;5030200;28;20048;-77
2023/02/21 13:37:31;;;;;;;67.40;34.85;;;9.80;99.90;;;;;;5017993;28;20076;-76
2023/02/21 13:40:22;;;;;;;68.68;34.30;;;9.90;99.90;;;;;;5018650;28;20048;-76
2023/02/21 13:42:59;;;;;;;70.03;35.58;;;9.80;99.90;;;;;;5029992;28;20040;-76
2023/02/21 13:45:26;;;;;;;73.72;35.53;;;9.90;99.90;;;;;;5021436;28;20044;-75
2023/02/21 13:47:51;;;;;;;67.32;34.40;;;9.80;99.90;;;;;;5027133;28;20277;-75
2023/02/21 13:50:36;;;;;;;69.60;35.53;;;9.80;99.90;;;;;;5031512;28;20497;-76
2023/02/21 13:53:07;;;;;;;75.05;35.00;;;9.80;99.90;;;;;;5022613;28;20041;-76
2023/02/21 13:55:35;;;;;;;69.47;33.63;;;9.80;99.90;;;;;;5026765;28;20079;-75
2023/02/21 13:58:00;;;;;;;76.68;35.13;;;9.80;99.90;;;;;;5037806;28;20446;-76
2023/02/21 14:00:26;;;;;;;67.97;34.88;;;9.80;99.90;;;;;;5018036;28;20053;-76
2023/02/21 14:03:11;;;;;;;67.15;35.55;;;9.90;99.90;;;;;;5026345;28;20119;-76
2023/02/21 14:05:49;;;;;;;68.55;34.10;;;9.80;99.90;;;;;;5024437;28;20049;-76
2023/02/21 14:08:25;;;;;;;69.13;34.58;;;9.80;99.90;;;;;;5027663;28;20676;-76
2023/02/21 14:11:06;;;;;;;69.15;34.53;;;9.80;99.90;;;;;;5020536;28;20394;-76
2023/02/21 14:13:37;;;;;;;65.68;35.13;;;9.80;99.90;;;;;;5027953;28;20486;-76
2023/02/21 14:16:12;;;;;;;71.03;36.15;;;9.80;99.90;;;;;;5028726;28;20582;-74
2023/02/21 14:18:37;;;;;;;68.25;34.40;;;10.00;99.90;;;;;;5021282;28;20397;-75
2023/02/21 14:21:12;;;;;;;64.45;33.47;;;9.80;99.90;;;;;;5014328;28;20025;-75
2023/02/21 14:23:58;;;;;;;71.20;33.85;;;9.70;99.90;;;;;;5029527;28;20044;-75
2023/02/21 14:26:44;;;;;;;71.60;35.28;;;9.80;99.90;;;;;;5029984;28;20044;-75
2023/02/21 14:29:26;;;;;;;73.18;35.38;;;9.80;99.90;;;;;;5029891;28;20124;-75
2023/02/21 14:32:01;;;;;;;71.85;35.75;;;9.70;99.90;;;;;;5041430;28;20493;-75
2023/02/21 14:34:51;;;;;;;66.97;34.25;;;9.70;99.90;;;;;;5027292;28;20048;-75
2023/02/21 14:37:39;;;;;;;79.40;35.25;;;9.70;99.90;;;;;;5031948;28;20063;-75
2023/02/21 14:40:09;;;;;;;69.97;34.90;;;9.70;99.90;;;;;;5025244;28;20041;-75
2023/02/21 14:42:43;;;;;;;70.50;34.28;;;9.70;99.90;;;;;;5042923;28;20048;-74
2023/02/21 14:45:08;;;;;;;70.78;35.17;;;9.70;99.90;;;;;;5024216;28;20393;-74
2023/02/21 14:48:15;;;;;;;69.85;35.22;;;9.70;99.90;;;;;;5028516;28;20036;-74
2023/02/21 14:51:03;;;;;;;69.55;34.33;;;9.70;99.90;;;;;;5046606;28;20108;-74
2023/02/21 14:53:47;;;;;;;71.95;34.60;;;9.70;99.90;;;;;;5027190;28;20041;-74
2023/02/21 14:56:37;;;;;;;67.80;33.60;;;9.70;99.90;;;;;;5023868;28;20077;-74
2023/02/21 14:59:25;;;;;;;69.35;33.70;;;9.70;99.90;;;;;;5029360;28;20037;-74
2023/02/21 15:02:20;;;;;;;72.15;36.35;;;9.70;99.90;;;;;;5046968;28;20511;-75
2023/02/21 15:04:55;;;;;;;69.25;35.17;;;9.70;99.90;;;;;;5024006;28;20064;-77
2023/02/21 15:07:36;;;;;;;65.10;33.45;;;9.70;99.90;;;;;;5032165;28;20049;-75
2023/02/21 15:10:14;;;;;;;70.70;33.80;;;9.70;99.90;;;;;;5028712;28;20143;-76
2023/02/21 15:13:01;;;;;;;66.18;33.75;;;9.70;99.90;;;;;;5030095;28;20053;-76
2023/02/21 15:15:38;;;;;;;66.30;32.60;;;9.70;99.90;;;;;;5020964;28;20049;-77
2023/02/21 15:18:05;;;;;;;66.13;32.95;;;9.70;99.90;;;;;;5028527;28;20119;-75
2023/02/21 15:20:41;;;;;;;62.88;31.90;;;9.70;99.90;;;;;;5031237;28;20037;-76